sensor_id;sensor_type;location;lat;lon;timestamp;P1;durP1;ratioP1;P2;durP2;ratioP2
24157;SDS011;12316;50.904;4.200;2023-02-18T00:00:20;16.63;;;11.52;;
24157;SDS011;12316;50.904;4.200;2023-02-18T00:02:47;13.70;;;10.73;;
24157;SDS011;12316;50.904;4.200;2023-02-18T00:05:14;16.15;;;11.70;;
24157;SDS011;12316;50.904;4.200;2023-02-18T00:07:40;16.17;;;11.50;;
24157;SDS011;12316;50.904;4.200;2023-02-18T00:10:07;15.35;;;11.25;;
24157;SDS011;12316;50.904;4.200;2023-02-18T00:12:36;15.30;;;11.20;;
24157;SDS011;12316;50.904;4.200;2023-02-18T00:15:02;13.95;;;10.85;;
24157;SDS011;12316;50.904;4.200;2023-02-18T00:17:29;15.43;;;11.48;;
24157;SDS011;12316;50.904;4.200;2023-02-18T00:19:54;16.73;;;11.05;;
24157;SDS011;12316;50.904;4.200;2023-02-18T00:22:21;15.13;;;11.02;;
24157;SDS011;12316;50.904;4.200;2023-02-18T00:24:47;17.05;;;11.95;;
24157;SDS011;12316;50.904;4.200;2023-02-18T00:27:12;16.85;;;12.13;;
24157;SDS011;12316;50.904;4.200;2023-02-18T00:29:38;17.77;;;12.27;;
24157;SDS011;12316;50.904;4.200;2023-02-18T00:32:04;16.70;;;11.98;;
24157;SDS011;12316;50.904;4.200;2023-02-18T00:34:31;16.25;;;11.88;;
24157;SDS011;12316;50.904;4.200;2023-02-18T00:36:56;19.42;;;13.30;;
24157;SDS011;12316;50.904;4.200;2023-02-18T00:39:22;17.92;;;12.65;;
24157;SDS011;12316;50.904;4.200;2023-02-18T00:41:48;17.45;;;12.55;;
24157;SDS011;12316;50.904;4.200;2023-02-18T00:44:13;17.60;;;12.98;;
24157;SDS011;12316;50.904;4.200;2023-02-18T00:46:39;17.30;;;12.57;;
24157;SDS011;12316;50.904;4.200;2023-02-18T00:49:05;17.15;;;12.15;;
24157;SDS011;12316;50.904;4.200;2023-02-18T00:51:31;15.75;;;11.40;;
24157;SDS011;12316;50.904;4.200;2023-02-18T00:53:57;16.27;;;11.70;;
24157;SDS011;12316;50.904;4.200;2023-02-18T00:56:23;17.98;;;11.82;;
24157;SDS011;12316;50.904;4.200;2023-02-18T00:58:49;15.45;;;10.95;;
24157;SDS011;12316;50.904;4.200;2023-02-18T01:01:16;15.55;;;10.80;;
24157;SDS011;12316;50.904;4.200;2023-02-18T01:03:42;18.00;;;10.77;;
24157;SDS011;12316;50.904;4.200;2023-02-18T01:06:08;17.55;;;10.82;;
24157;SDS011;12316;50.904;4.200;2023-02-18T01:08:35;14.38;;;10.63;;
24157;SDS011;12316;50.904;4.200;2023-02-18T01:11:02;16.10;;;10.68;;
24157;SDS011;12316;50.904;4.200;2023-02-18T01:13:28;15.18;;;10.65;;
24157;SDS011;12316;50.904;4.200;2023-02-18T01:15:54;15.25;;;10.38;;
24157;SDS011;12316;50.904;4.200;2023-02-18T01:18:20;15.27;;;10.35;;
24157;SDS011;12316;50.904;4.200;2023-02-18T01:20:46;15.25;;;10.90;;
24157;SDS011;12316;50.904;4.200;2023-02-18T01:23:12;17.17;;;10.50;;
24157;SDS011;12316;50.904;4.200;2023-02-18T01:25:38;13.13;;;9.70;;
24157;SDS011;12316;50.904;4.200;2023-02-18T01:28:05;12.80;;;9.90;;
24157;SDS011;12316;50.904;4.200;2023-02-18T01:30:32;13.77;;;10.05;;
24157;SDS011;12316;50.904;4.200;2023-02-18T01:32:58;16.13;;;10.52;;
24157;SDS011;12316;50.904;4.200;2023-02-18T01:35:24;14.07;;;10.25;;
24157;SDS011;12316;50.904;4.200;2023-02-18T01:37:50;15.05;;;10.05;;
24157;SDS011;12316;50.904;4.200;2023-02-18T01:40:17;14.85;;;10.48;;
24157;SDS011;12316;50.904;4.200;2023-02-18T01:42:45;16.23;;;10.95;;
24157;SDS011;12316;50.904;4.200;2023-02-18T01:47:59;17.13;;;10.52;;
24157;SDS011;12316;50.904;4.200;2023-02-18T01:50:26;17.50;;;10.38;;
24157;SDS011;12316;50.904;4.200;2023-02-18T01:52:52;16.17;;;10.60;;
24157;SDS011;12316;50.904;4.200;2023-02-18T01:55:18;15.80;;;10.60;;
24157;SDS011;12316;50.904;4.200;2023-02-18T01:57:44;16.10;;;11.00;;
24157;SDS011;12316;50.904;4.200;2023-02-18T02:00:11;17.80;;;11.40;;
24157;SDS011;12316;50.904;4.200;2023-02-18T02:02:40;17.38;;;11.48;;
24157;SDS011;12316;50.904;4.200;2023-02-18T02:05:08;20.05;;;12.52;;
24157;SDS011;12316;50.904;4.200;2023-02-18T02:07:34;21.17;;;12.35;;
24157;SDS011;12316;50.904;4.200;2023-02-18T02:10:00;16.95;;;12.00;;
24157;SDS011;12316;50.904;4.200;2023-02-18T02:36:48;13.68;;;9.68;;
24157;SDS011;12316;50.904;4.200;2023-02-18T02:39:28;16.92;;;9.82;;
24157;SDS011;12316;50.904;4.200;2023-02-18T02:50:29;15.55;;;9.77;;
24157;SDS011;12316;50.904;4.200;2023-02-18T02:53:01;14.77;;;9.50;;
24157;SDS011;12316;50.904;4.200;2023-02-18T02:55:33;14.60;;;9.65;;
24157;SDS011;12316;50.904;4.200;2023-02-18T02:57:59;15.45;;;9.27;;
24157;SDS011;12316;50.904;4.200;2023-02-18T03:00:34;18.15;;;10.65;;
24157;SDS011;12316;50.904;4.200;2023-02-18T03:24:36;7.95;;;5.32;;
24157;SDS011;12316;50.904;4.200;2023-02-18T03:29:51;7.55;;;4.30;;
24157;SDS011;12316;50.904;4.200;2023-02-18T03:32:23;6.32;;;4.00;;
24157;SDS011;12316;50.904;4.200;2023-02-18T03:34:52;5.70;;;3.70;;
24157;SDS011;12316;50.904;4.200;2023-02-18T03:37:24;5.78;;;3.83;;
24157;SDS011;12316;50.904;4.200;2023-02-18T03:39:53;6.57;;;4.40;;
24157;SDS011;12316;50.904;4.200;2023-02-18T03:42:26;6.35;;;4.00;;
24157;SDS011;12316;50.904;4.200;2023-02-18T03:44:52;7.10;;;4.72;;
24157;SDS011;12316;50.904;4.200;2023-02-18T03:47:18;6.60;;;4.50;;
24157;SDS011;12316;50.904;4.200;2023-02-18T03:49:43;7.35;;;4.63;;
24157;SDS011;12316;50.904;4.200;2023-02-18T03:52:09;7.40;;;4.47;;
24157;SDS011;12316;50.904;4.200;2023-02-18T03:54:35;7.40;;;4.20;;
24157;SDS011;12316;50.904;4.200;2023-02-18T03:57:01;7.05;;;4.50;;
24157;SDS011;12316;50.904;4.200;2023-02-18T03:59:27;7.32;;;4.68;;
24157;SDS011;12316;50.904;4.200;2023-02-18T04:01:52;7.10;;;4.35;;
24157;SDS011;12316;50.904;4.200;2023-02-18T04:04:18;6.78;;;4.43;;
24157;SDS011;12316;50.904;4.200;2023-02-18T04:06:43;5.63;;;3.85;;
24157;SDS011;12316;50.904;4.200;2023-02-18T04:09:09;5.93;;;4.00;;
24157;SDS011;12316;50.904;4.200;2023-02-18T04:11:39;8.57;;;4.30;;
24157;SDS011;12316;50.904;4.200;2023-02-18T04:14:06;6.70;;;3.80;;
24157;SDS011;12316;50.904;4.200;2023-02-18T04:16:32;5.07;;;4.00;;
24157;SDS011;12316;50.904;4.200;2023-02-18T04:18:58;7.45;;;4.05;;
24157;SDS011;12316;50.904;4.200;2023-02-18T04:21:24;7.53;;;4.28;;
24157;SDS011;12316;50.904;4.200;2023-02-18T04:23:49;5.63;;;3.90;;
24157;SDS011;12316;50.904;4.200;2023-02-18T04:26:15;5.82;;;3.80;;
24157;SDS011;12316;50.904;4.200;2023-02-18T04:28:41;5.35;;;4.10;;
24157;SDS011;12316;50.904;4.200;2023-02-18T04:31:06;5.47;;;3.70;;
24157;SDS011;12316;50.904;4.200;2023-02-18T04:33:32;5.40;;;3.90;;
24157;SDS011;12316;50.904;4.200;2023-02-18T04:35:57;6.40;;;4.15;;
24157;SDS011;12316;50.904;4.200;2023-02-18T04:38:23;6.43;;;4.10;;
24157;SDS011;12316;50.904;4.200;2023-02-18T04:40:49;6.43;;;4.07;;
24157;SDS011;12316;50.904;4.200;2023-02-18T04:43:15;6.60;;;3.72;;
24157;SDS011;12316;50.904;4.200;2023-02-18T04:45:40;6.65;;;4.18;;
24157;SDS011;12316;50.904;4.200;2023-02-18T04:48:06;5.05;;;3.63;;
24157;SDS011;12316;50.904;4.200;2023-02-18T04:50:33;8.55;;;4.35;;
24157;SDS011;12316;50.904;4.200;2023-02-18T04:52:59;5.65;;;3.85;;
24157;SDS011;12316;50.904;4.200;2023-02-18T04:55:25;5.78;;;3.85;;
24157;SDS011;12316;50.904;4.200;2023-02-18T04:57:50;4.90;;;3.38;;
24157;SDS011;12316;50.904;4.200;2023-02-18T05:00:16;6.13;;;3.97;;
24157;SDS011;12316;50.904;4.200;2023-02-18T05:02:43;4.43;;;3.40;;
24157;SDS011;12316;50.904;4.200;2023-02-18T05:05:09;4.43;;;3.22;;
24157;SDS011;12316;50.904;4.200;2023-02-18T05:07:35;5.30;;;3.33;;
24157;SDS011;12316;50.904;4.200;2023-02-18T05:10:01;3.88;;;3.05;;
24157;SDS011;12316;50.904;4.200;2023-02-18T05:12:28;4.45;;;3.20;;
24157;SDS011;12316;50.904;4.200;2023-02-18T05:14:53;5.05;;;3.10;;
24157;SDS011;12316;50.904;4.200;2023-02-18T05:17:19;4.30;;;2.83;;
24157;SDS011;12316;50.904;4.200;2023-02-18T05:19:46;3.63;;;2.88;;
24157;SDS011;12316;50.904;4.200;2023-02-18T05:22:11;4.85;;;2.58;;
24157;SDS011;12316;50.904;4.200;2023-02-18T05:24:37;4.10;;;2.60;;
24157;SDS011;12316;50.904;4.200;2023-02-18T05:27:02;4.78;;;2.70;;
24157;SDS011;12316;50.904;4.200;2023-02-18T05:29:28;6.20;;;2.58;;
24157;SDS011;12316;50.904;4.200;2023-02-18T05:31:53;9.40;;;2.90;;
24157;SDS011;12316;50.904;4.200;2023-02-18T05:34:20;5.65;;;2.40;;
24157;SDS011;12316;50.904;4.200;2023-02-18T05:36:45;4.60;;;2.20;;
24157;SDS011;12316;50.904;4.200;2023-02-18T05:39:11;6.97;;;2.63;;
24157;SDS011;12316;50.904;4.200;2023-02-18T05:41:37;7.78;;;2.55;;
24157;SDS011;12316;50.904;4.200;2023-02-18T05:44:02;8.20;;;2.90;;
24157;SDS011;12316;50.904;4.200;2023-02-18T05:46:47;8.80;;;2.90;;
24157;SDS011;12316;50.904;4.200;2023-02-18T05:49:12;6.05;;;2.58;;
24157;SDS011;12316;50.904;4.200;2023-02-18T05:51:38;10.88;;;2.95;;
24157;SDS011;12316;50.904;4.200;2023-02-18T05:54:03;13.38;;;2.80;;
24157;SDS011;12316;50.904;4.200;2023-02-18T05:56:29;15.38;;;2.90;;
24157;SDS011;12316;50.904;4.200;2023-02-18T05:58:55;12.63;;;2.75;;
24157;SDS011;12316;50.904;4.200;2023-02-18T06:01:20;16.45;;;2.60;;
24157;SDS011;12316;50.904;4.200;2023-02-18T06:03:48;16.20;;;2.75;;
24157;SDS011;12316;50.904;4.200;2023-02-18T06:06:14;13.65;;;2.55;;
24157;SDS011;12316;50.904;4.200;2023-02-18T06:08:39;13.68;;;2.53;;
24157;SDS011;12316;50.904;4.200;2023-02-18T06:11:05;13.95;;;2.58;;
24157;SDS011;12316;50.904;4.200;2023-02-18T06:13:30;12.18;;;2.55;;
24157;SDS011;12316;50.904;4.200;2023-02-18T06:15:56;18.67;;;2.78;;
24157;SDS011;12316;50.904;4.200;2023-02-18T06:18:22;14.27;;;2.70;;
24157;SDS011;12316;50.904;4.200;2023-02-18T06:20:47;11.90;;;2.63;;
24157;SDS011;12316;50.904;4.200;2023-02-18T06:23:13;12.38;;;2.67;;
24157;SDS011;12316;50.904;4.200;2023-02-18T06:25:39;13.60;;;2.53;;
24157;SDS011;12316;50.904;4.200;2023-02-18T06:28:06;18.88;;;2.72;;
24157;SDS011;12316;50.904;4.200;2023-02-18T06:30:32;17.00;;;2.72;;
24157;SDS011;12316;50.904;4.200;2023-02-18T06:32:57;15.23;;;2.83;;
24157;SDS011;12316;50.904;4.200;2023-02-18T06:35:23;16.35;;;2.63;;
24157;SDS011;12316;50.904;4.200;2023-02-18T06:37:48;12.40;;;2.63;;
24157;SDS011;12316;50.904;4.200;2023-02-18T06:40:14;13.93;;;2.50;;
24157;SDS011;12316;50.904;4.200;2023-02-18T06:42:40;18.75;;;2.95;;
24157;SDS011;12316;50.904;4.200;2023-02-18T06:45:05;15.57;;;2.70;;
24157;SDS011;12316;50.904;4.200;2023-02-18T06:47:32;14.15;;;3.10;;
24157;SDS011;12316;50.904;4.200;2023-02-18T06:49:58;15.25;;;3.00;;
24157;SDS011;12316;50.904;4.200;2023-02-18T06:52:24;14.60;;;2.40;;
24157;SDS011;12316;50.904;4.200;2023-02-18T06:54:50;18.88;;;2.67;;
24157;SDS011;12316;50.904;4.200;2023-02-18T06:57:15;12.80;;;3.00;;
24157;SDS011;12316;50.904;4.200;2023-02-18T06:59:42;16.75;;;2.65;;
24157;SDS011;12316;50.904;4.200;2023-02-18T07:02:09;15.18;;;2.78;;
24157;SDS011;12316;50.904;4.200;2023-02-18T07:04:38;16.30;;;3.00;;
24157;SDS011;12316;50.904;4.200;2023-02-18T07:07:03;16.52;;;2.92;;
24157;SDS011;12316;50.904;4.200;2023-02-18T07:09:29;19.58;;;2.72;;
24157;SDS011;12316;50.904;4.200;2023-02-18T07:11:54;15.27;;;2.80;;
24157;SDS011;12316;50.904;4.200;2023-02-18T07:14:20;11.60;;;2.60;;
24157;SDS011;12316;50.904;4.200;2023-02-18T07:16:47;12.98;;;2.58;;
24157;SDS011;12316;50.904;4.200;2023-02-18T07:19:13;16.92;;;2.70;;
24157;SDS011;12316;50.904;4.200;2023-02-18T07:21:39;14.30;;;3.10;;
24157;SDS011;12316;50.904;4.200;2023-02-18T07:24:04;14.13;;;2.47;;
24157;SDS011;12316;50.904;4.200;2023-02-18T07:26:31;16.52;;;2.80;;
24157;SDS011;12316;50.904;4.200;2023-02-18T07:28:57;16.90;;;2.75;;
24157;SDS011;12316;50.904;4.200;2023-02-18T07:31:23;12.00;;;2.60;;
24157;SDS011;12316;50.904;4.200;2023-02-18T07:33:48;14.95;;;2.90;;
24157;SDS011;12316;50.904;4.200;2023-02-18T07:36:14;14.20;;;2.58;;
24157;SDS011;12316;50.904;4.200;2023-02-18T07:38:40;12.95;;;2.50;;
24157;SDS011;12316;50.904;4.200;2023-02-18T07:41:10;17.58;;;3.10;;
24157;SDS011;12316;50.904;4.200;2023-02-18T07:43:47;16.48;;;2.72;;
24157;SDS011;12316;50.904;4.200;2023-02-18T07:46:13;16.30;;;2.97;;
24157;SDS011;12316;50.904;4.200;2023-02-18T07:48:39;15.20;;;2.78;;
24157;SDS011;12316;50.904;4.200;2023-02-18T07:51:05;19.42;;;2.88;;
24157;SDS011;12316;50.904;4.200;2023-02-18T07:53:32;20.08;;;3.10;;
24157;SDS011;12316;50.904;4.200;2023-02-18T07:55:58;14.38;;;2.28;;
24157;SDS011;12316;50.904;4.200;2023-02-18T07:58:31;16.30;;;2.55;;
24157;SDS011;12316;50.904;4.200;2023-02-18T08:00:58;18.65;;;2.90;;
24157;SDS011;12316;50.904;4.200;2023-02-18T08:03:25;13.05;;;2.72;;
24157;SDS011;12316;50.904;4.200;2023-02-18T08:05:54;16.42;;;2.80;;
24157;SDS011;12316;50.904;4.200;2023-02-18T08:08:21;15.30;;;3.08;;
24157;SDS011;12316;50.904;4.200;2023-02-18T08:10:49;16.00;;;3.22;;
24157;SDS011;12316;50.904;4.200;2023-02-18T08:13:15;15.07;;;2.65;;
24157;SDS011;12316;50.904;4.200;2023-02-18T08:15:41;15.13;;;2.63;;
24157;SDS011;12316;50.904;4.200;2023-02-18T08:18:07;15.23;;;2.75;;
24157;SDS011;12316;50.904;4.200;2023-02-18T08:20:38;16.83;;;2.72;;
24157;SDS011;12316;50.904;4.200;2023-02-18T08:23:04;13.27;;;2.40;;
24157;SDS011;12316;50.904;4.200;2023-02-18T08:25:30;15.13;;;2.42;;
24157;SDS011;12316;50.904;4.200;2023-02-18T08:27:56;9.68;;;2.13;;
24157;SDS011;12316;50.904;4.200;2023-02-18T08:30:22;10.77;;;2.05;;
24157;SDS011;12316;50.904;4.200;2023-02-18T08:32:49;14.25;;;1.75;;
24157;SDS011;12316;50.904;4.200;2023-02-18T08:35:15;11.68;;;2.10;;
24157;SDS011;12316;50.904;4.200;2023-02-18T08:37:40;12.55;;;2.45;;
24157;SDS011;12316;50.904;4.200;2023-02-18T08:40:06;11.00;;;2.25;;
24157;SDS011;12316;50.904;4.200;2023-02-18T08:42:33;9.70;;;1.88;;
24157;SDS011;12316;50.904;4.200;2023-02-18T08:44:58;10.25;;;2.40;;
24157;SDS011;12316;50.904;4.200;2023-02-18T08:47:24;9.43;;;2.40;;
24157;SDS011;12316;50.904;4.200;2023-02-18T08:49:51;11.02;;;1.98;;
24157;SDS011;12316;50.904;4.200;2023-02-18T08:52:17;10.15;;;2.10;;
24157;SDS011;12316;50.904;4.200;2023-02-18T08:54:43;8.75;;;1.90;;
24157;SDS011;12316;50.904;4.200;2023-02-18T08:57:09;12.18;;;2.20;;
24157;SDS011;12316;50.904;4.200;2023-02-18T08:59:35;10.05;;;1.60;;
24157;SDS011;12316;50.904;4.200;2023-02-18T09:02:01;8.00;;;1.60;;
24157;SDS011;12316;50.904;4.200;2023-02-18T09:04:26;10.57;;;1.63;;
24157;SDS011;12316;50.904;4.200;2023-02-18T09:06:52;9.77;;;2.10;;
24157;SDS011;12316;50.904;4.200;2023-02-18T09:09:17;10.93;;;1.67;;
24157;SDS011;12316;50.904;4.200;2023-02-18T09:11:43;9.27;;;1.60;;
24157;SDS011;12316;50.904;4.200;2023-02-18T09:14:09;8.20;;;1.52;;
24157;SDS011;12316;50.904;4.200;2023-02-18T09:16:37;11.18;;;2.10;;
24157;SDS011;12316;50.904;4.200;2023-02-18T09:19:03;10.60;;;1.90;;
24157;SDS011;12316;50.904;4.200;2023-02-18T09:21:29;6.90;;;1.60;;
24157;SDS011;12316;50.904;4.200;2023-02-18T09:23:55;9.88;;;1.80;;
24157;SDS011;12316;50.904;4.200;2023-02-18T09:26:22;9.25;;;2.17;;
24157;SDS011;12316;50.904;4.200;2023-02-18T09:28:49;8.77;;;1.80;;
24157;SDS011;12316;50.904;4.200;2023-02-18T09:31:20;9.52;;;1.73;;
24157;SDS011;12316;50.904;4.200;2023-02-18T09:33:58;8.82;;;1.75;;
24157;SDS011;12316;50.904;4.200;2023-02-18T09:36:25;9.65;;;1.65;;
24157;SDS011;12316;50.904;4.200;2023-02-18T09:38:52;8.43;;;1.63;;
24157;SDS011;12316;50.904;4.200;2023-02-18T09:41:29;10.07;;;1.80;;
24157;SDS011;12316;50.904;4.200;2023-02-18T09:43:59;8.85;;;1.75;;
24157;SDS011;12316;50.904;4.200;2023-02-18T09:49:21;9.13;;;1.73;;
24157;SDS011;12316;50.904;4.200;2023-02-18T09:51:50;11.00;;;2.00;;
24157;SDS011;12316;50.904;4.200;2023-02-18T09:54:17;8.85;;;1.80;;
24157;SDS011;12316;50.904;4.200;2023-02-18T09:56:45;5.88;;;1.60;;
24157;SDS011;12316;50.904;4.200;2023-02-18T09:59:15;11.20;;;2.03;;
24157;SDS011;12316;50.904;4.200;2023-02-18T10:01:47;10.65;;;2.00;;
24157;SDS011;12316;50.904;4.200;2023-02-18T10:04:20;14.05;;;2.25;;
24157;SDS011;12316;50.904;4.200;2023-02-18T10:06:49;7.18;;;2.05;;
24157;SDS011;12316;50.904;4.200;2023-02-18T10:09:18;8.80;;;2.00;;
24157;SDS011;12316;50.904;4.200;2023-02-18T10:12:13;6.93;;;2.00;;
24157;SDS011;12316;50.904;4.200;2023-02-18T10:14:42;11.07;;;1.77;;
24157;SDS011;12316;50.904;4.200;2023-02-18T10:17:34;7.72;;;1.80;;
24157;SDS011;12316;50.904;4.200;2023-02-18T10:20:02;8.95;;;1.90;;
24157;SDS011;12316;50.904;4.200;2023-02-18T10:22:28;8.23;;;1.70;;
24157;SDS011;12316;50.904;4.200;2023-02-18T10:25:01;10.02;;;1.63;;
24157;SDS011;12316;50.904;4.200;2023-02-18T10:27:30;7.28;;;2.00;;
24157;SDS011;12316;50.904;4.200;2023-02-18T10:30:01;8.70;;;1.65;;
24157;SDS011;12316;50.904;4.200;2023-02-18T10:32:45;8.93;;;2.13;;
24157;SDS011;12316;50.904;4.200;2023-02-18T10:35:21;8.77;;;1.73;;
24157;SDS011;12316;50.904;4.200;2023-02-18T10:40:42;9.48;;;1.70;;
24157;SDS011;12316;50.904;4.200;2023-02-18T10:43:42;7.35;;;1.63;;
24157;SDS011;12316;50.904;4.200;2023-02-18T10:46:42;11.40;;;1.92;;
24157;SDS011;12316;50.904;4.200;2023-02-18T10:52:17;8.00;;;1.60;;
24157;SDS011;12316;50.904;4.200;2023-02-18T10:54:51;10.90;;;2.17;;
24157;SDS011;12316;50.904;4.200;2023-02-18T10:57:22;12.82;;;2.47;;
24157;SDS011;12316;50.904;4.200;2023-02-18T10:59:56;12.02;;;2.42;;
24157;SDS011;12316;50.904;4.200;2023-02-18T11:02:59;9.98;;;2.20;;
24157;SDS011;12316;50.904;4.200;2023-02-18T11:05:44;10.40;;;1.90;;
24157;SDS011;12316;50.904;4.200;2023-02-18T11:08:34;7.40;;;1.73;;
24157;SDS011;12316;50.904;4.200;2023-02-18T11:11:15;11.40;;;2.00;;
24157;SDS011;12316;50.904;4.200;2023-02-18T11:14:02;10.75;;;1.85;;
24157;SDS011;12316;50.904;4.200;2023-02-18T11:16:43;7.25;;;2.20;;
24157;SDS011;12316;50.904;4.200;2023-02-18T11:19:29;11.55;;;2.20;;
24157;SDS011;12316;50.904;4.200;2023-02-18T11:24:46;10.25;;;2.42;;
24157;SDS011;12316;50.904;4.200;2023-02-18T11:27:30;9.77;;;2.05;;
24157;SDS011;12316;50.904;4.200;2023-02-18T11:30:06;15.20;;;2.20;;
24157;SDS011;12316;50.904;4.200;2023-02-18T11:32:43;9.73;;;2.10;;
24157;SDS011;12316;50.904;4.200;2023-02-18T11:35:17;8.50;;;2.15;;
24157;SDS011;12316;50.904;4.200;2023-02-18T11:37:44;10.98;;;2.17;;
24157;SDS011;12316;50.904;4.200;2023-02-18T11:40:21;13.55;;;2.20;;
24157;SDS011;12316;50.904;4.200;2023-02-18T11:42:47;7.60;;;2.22;;
24157;SDS011;12316;50.904;4.200;2023-02-18T11:45:27;11.20;;;2.28;;
24157;SDS011;12316;50.904;4.200;2023-02-18T11:50:41;14.55;;;2.58;;
24157;SDS011;12316;50.904;4.200;2023-02-18T11:55:58;11.18;;;2.78;;
24157;SDS011;12316;50.904;4.200;2023-02-18T11:58:25;9.35;;;2.20;;
24157;SDS011;12316;50.904;4.200;2023-02-18T12:00:58;12.48;;;2.53;;
24157;SDS011;12316;50.904;4.200;2023-02-18T12:11:59;11.07;;;2.25;;
24157;SDS011;12316;50.904;4.200;2023-02-18T12:14:31;10.88;;;2.40;;
24157;SDS011;12316;50.904;4.200;2023-02-18T12:17:08;12.65;;;2.38;;
24157;SDS011;12316;50.904;4.200;2023-02-18T12:22:43;11.02;;;2.40;;
24157;SDS011;12316;50.904;4.200;2023-02-18T12:28:08;14.65;;;2.60;;
24157;SDS011;12316;50.904;4.200;2023-02-18T12:36:05;11.73;;;2.47;;
24157;SDS011;12316;50.904;4.200;2023-02-18T12:54:54;14.90;;;2.58;;
24157;SDS011;12316;50.904;4.200;2023-02-18T13:05:37;14.15;;;3.40;;
24157;SDS011;12316;50.904;4.200;2023-02-18T13:11:22;13.55;;;3.30;;
24157;SDS011;12316;50.904;4.200;2023-02-18T13:14:18;13.88;;;3.50;;
24157;SDS011;12316;50.904;4.200;2023-02-18T13:16:48;17.15;;;3.33;;
24157;SDS011;12316;50.904;4.200;2023-02-18T13:19:26;14.43;;;3.20;;
24157;SDS011;12316;50.904;4.200;2023-02-18T13:22:13;11.57;;;3.67;;
24157;SDS011;12316;50.904;4.200;2023-02-18T13:24:43;12.02;;;3.63;;
24157;SDS011;12316;50.904;4.200;2023-02-18T13:32:45;15.32;;;3.50;;
24157;SDS011;12316;50.904;4.200;2023-02-18T13:35:26;13.35;;;3.47;;
24157;SDS011;12316;50.904;4.200;2023-02-18T13:41:05;17.27;;;3.45;;
24157;SDS011;12316;50.904;4.200;2023-02-18T13:43:33;12.15;;;3.65;;
24157;SDS011;12316;50.904;4.200;2023-02-18T13:46:03;13.30;;;3.67;;
24157;SDS011;12316;50.904;4.200;2023-02-18T13:48:50;13.00;;;3.67;;
24157;SDS011;12316;50.904;4.200;2023-02-18T13:51:46;16.90;;;3.38;;
24157;SDS011;12316;50.904;4.200;2023-02-18T14:01:46;11.68;;;3.33;;
24157;SDS011;12316;50.904;4.200;2023-02-18T14:07:26;14.70;;;3.67;;
24157;SDS011;12316;50.904;4.200;2023-02-18T14:10:45;12.63;;;3.58;;
24157;SDS011;12316;50.904;4.200;2023-02-18T14:25:54;12.32;;;3.88;;
24157;SDS011;12316;50.904;4.200;2023-02-18T14:31:00;10.77;;;4.10;;
24157;SDS011;12316;50.904;4.200;2023-02-18T14:33:29;8.35;;;3.38;;
24157;SDS011;12316;50.904;4.200;2023-02-18T14:43:44;15.18;;;4.20;;
24157;SDS011;12316;50.904;4.200;2023-02-18T14:51:33;13.50;;;3.65;;
24157;SDS011;12316;50.904;4.200;2023-02-18T14:54:06;12.25;;;4.00;;
24157;SDS011;12316;50.904;4.200;2023-02-18T14:56:38;10.27;;;3.65;;
24157;SDS011;12316;50.904;4.200;2023-02-18T14:59:30;8.45;;;3.78;;
24157;SDS011;12316;50.904;4.200;2023-02-18T15:02:00;10.40;;;4.03;;
24157;SDS011;12316;50.904;4.200;2023-02-18T15:04:26;12.52;;;4.10;;
24157;SDS011;12316;50.904;4.200;2023-02-18T15:07:03;12.65;;;4.05;;
24157;SDS011;12316;50.904;4.200;2023-02-18T15:09:29;13.43;;;4.15;;
24157;SDS011;12316;50.904;4.200;2023-02-18T15:14:30;11.55;;;4.00;;
24157;SDS011;12316;50.904;4.200;2023-02-18T15:16:58;13.23;;;4.15;;
24157;SDS011;12316;50.904;4.200;2023-02-18T15:19:26;13.65;;;4.40;;
24157;SDS011;12316;50.904;4.200;2023-02-18T15:21:54;11.95;;;4.43;;
24157;SDS011;12316;50.904;4.200;2023-02-18T15:24:26;11.40;;;4.85;;
24157;SDS011;12316;50.904;4.200;2023-02-18T15:27:03;11.10;;;4.22;;
24157;SDS011;12316;50.904;4.200;2023-02-18T15:29:36;20.38;;;4.75;;
24157;SDS011;12316;50.904;4.200;2023-02-18T15:32:12;14.52;;;4.32;;
24157;SDS011;12316;50.904;4.200;2023-02-18T15:34:43;14.40;;;4.72;;
24157;SDS011;12316;50.904;4.200;2023-02-18T15:37:11;12.57;;;4.57;;
24157;SDS011;12316;50.904;4.200;2023-02-18T15:39:38;13.18;;;4.22;;
24157;SDS011;12316;50.904;4.200;2023-02-18T15:42:25;11.35;;;4.00;;
24157;SDS011;12316;50.904;4.200;2023-02-18T15:44:56;15.70;;;4.28;;
24157;SDS011;12316;50.904;4.200;2023-02-18T15:47:27;11.13;;;3.93;;
24157;SDS011;12316;50.904;4.200;2023-02-18T15:49:54;14.05;;;3.63;;
24157;SDS011;12316;50.904;4.200;2023-02-18T15:52:26;13.07;;;3.83;;
24157;SDS011;12316;50.904;4.200;2023-02-18T15:54:55;10.13;;;2.88;;
24157;SDS011;12316;50.904;4.200;2023-02-18T15:57:27;15.73;;;3.78;;
24157;SDS011;12316;50.904;4.200;2023-02-18T15:59:59;9.57;;;3.15;;
24157;SDS011;12316;50.904;4.200;2023-02-18T16:02:31;6.47;;;2.88;;
24157;SDS011;12316;50.904;4.200;2023-02-18T16:04:58;14.18;;;3.20;;
24157;SDS011;12316;50.904;4.200;2023-02-18T16:07:31;13.57;;;3.15;;
24157;SDS011;12316;50.904;4.200;2023-02-18T16:12:57;9.77;;;3.50;;
24157;SDS011;12316;50.904;4.200;2023-02-18T16:15:46;13.05;;;3.50;;
24157;SDS011;12316;50.904;4.200;2023-02-18T16:23:43;9.95;;;3.45;;
24157;SDS011;12316;50.904;4.200;2023-02-18T16:26:26;9.45;;;3.55;;
24157;SDS011;12316;50.904;4.200;2023-02-18T16:28:53;5.95;;;3.40;;
24157;SDS011;12316;50.904;4.200;2023-02-18T16:31:19;10.70;;;4.07;;
24157;SDS011;12316;50.904;4.200;2023-02-18T16:33:47;11.35;;;4.07;;
24157;SDS011;12316;50.904;4.200;2023-02-18T16:36:13;8.77;;;3.90;;
24157;SDS011;12316;50.904;4.200;2023-02-18T16:38:40;10.63;;;3.78;;
24157;SDS011;12316;50.904;4.200;2023-02-18T16:41:07;8.20;;;3.95;;
24157;SDS011;12316;50.904;4.200;2023-02-18T16:43:35;8.30;;;3.78;;
24157;SDS011;12316;50.904;4.200;2023-02-18T16:46:06;10.10;;;3.95;;
24157;SDS011;12316;50.904;4.200;2023-02-18T16:51:11;9.35;;;4.40;;
24157;SDS011;12316;50.904;4.200;2023-02-18T16:53:39;12.68;;;5.07;;
24157;SDS011;12316;50.904;4.200;2023-02-18T16:56:11;11.55;;;3.85;;
24157;SDS011;12316;50.904;4.200;2023-02-18T16:58:40;8.27;;;3.90;;
24157;SDS011;12316;50.904;4.200;2023-02-18T17:01:07;8.93;;;3.97;;
24157;SDS011;12316;50.904;4.200;2023-02-18T17:03:43;7.90;;;3.80;;
24157;SDS011;12316;50.904;4.200;2023-02-18T17:06:09;8.95;;;4.00;;
24157;SDS011;12316;50.904;4.200;2023-02-18T17:08:34;7.00;;;3.60;;
24157;SDS011;12316;50.904;4.200;2023-02-18T17:11:00;7.63;;;3.92;;
24157;SDS011;12316;50.904;4.200;2023-02-18T17:13:26;7.13;;;3.42;;
24157;SDS011;12316;50.904;4.200;2023-02-18T17:15:55;8.70;;;4.13;;
24157;SDS011;12316;50.904;4.200;2023-02-18T17:18:22;9.60;;;4.25;;
24157;SDS011;12316;50.904;4.200;2023-02-18T17:20:49;7.43;;;3.90;;
24157;SDS011;12316;50.904;4.200;2023-02-18T17:23:17;12.57;;;4.72;;
24157;SDS011;12316;50.904;4.200;2023-02-18T17:25:45;9.57;;;4.75;;
24157;SDS011;12316;50.904;4.200;2023-02-18T17:28:13;12.30;;;4.78;;
24157;SDS011;12316;50.904;4.200;2023-02-18T17:30:43;11.18;;;5.38;;
24157;SDS011;12316;50.904;4.200;2023-02-18T17:33:12;9.52;;;5.32;;
24157;SDS011;12316;50.904;4.200;2023-02-18T17:35:40;10.35;;;5.20;;
24157;SDS011;12316;50.904;4.200;2023-02-18T17:38:09;8.70;;;5.10;;
24157;SDS011;12316;50.904;4.200;2023-02-18T17:40:40;9.90;;;5.13;;
24157;SDS011;12316;50.904;4.200;2023-02-18T17:43:09;9.35;;;5.75;;
24157;SDS011;12316;50.904;4.200;2023-02-18T17:45:39;11.27;;;6.05;;
24157;SDS011;12316;50.904;4.200;2023-02-18T17:48:12;9.10;;;6.00;;
24157;SDS011;12316;50.904;4.200;2023-02-18T17:50:38;11.07;;;5.80;;
24157;SDS011;12316;50.904;4.200;2023-02-18T17:53:04;11.90;;;6.22;;
24157;SDS011;12316;50.904;4.200;2023-02-18T17:55:34;15.18;;;6.32;;